Richwood, Louisiana
Current Conditions -  °F | °C
As of 11:53 PM on Wednesday 22 Oct 2014 (Local Time) from KMLU Reporting Station
Clear Clear  
Wind Chill: 54°   Ceiling: Unl
Heat Index: 54°   Visibility: 10mi
Dew Point: 48°   Wind: 5mph
Humidity: 80%   Direction: 40°NE
Pressure: 30.17"   Gusts: NA
Location:  32.3976°N, 92.0551°W
Report Text: KMLU 230453Z AUTO 04004KT 10SM CLR 12/09 A3017 RMK AO2 SLP215 T01220089
Loading
Personal Weather Stations






























Interactive Weather Map
Tropical Storm Tracking
New forecast layout! Learn more

10-Day Weather Forecast

Advertisements
Track Severe Weather on mobile